createdAt,value
2022-09-03T00:02:43.763Z,16.06
2022-09-03T00:07:55.679Z,16.04
2022-09-03T00:13:03.705Z,16.02
2022-09-03T00:18:09.683Z,15.97
2022-09-03T00:23:20.580Z,15.98
2022-09-03T00:28:29.822Z,15.97
2022-09-03T00:33:34.590Z,15.94
2022-09-03T00:38:40.960Z,15.93
2022-09-03T00:43:58.605Z,15.94
2022-09-03T00:49:34.970Z,15.94
2022-09-03T00:54:48.735Z,15.86
2022-09-03T00:59:58.976Z,15.83
2022-09-03T01:05:09.296Z,15.81
2022-09-03T01:10:26.838Z,15.78
2022-09-03T01:15:35.662Z,15.75
2022-09-03T01:20:49.173Z,15.67
2022-09-03T01:25:59.107Z,15.62
2022-09-03T01:31:12.910Z,15.62
2022-09-03T01:36:23.176Z,15.57
2022-09-03T01:41:54.699Z,15.56
2022-09-03T01:47:06.659Z,15.59
2022-09-03T01:52:15.335Z,15.62
2022-09-03T01:57:37.298Z,15.63
2022-09-03T02:02:43.980Z,15.61
2022-09-03T02:07:49.084Z,15.59
2022-09-03T02:12:55.755Z,15.57
2022-09-03T02:18:04.439Z,15.56
2022-09-03T02:23:07.295Z,15.50
2022-09-03T02:28:17.125Z,15.49
2022-09-03T02:33:22.079Z,15.48
2022-09-03T02:38:27.397Z,15.42
2022-09-03T02:43:35.459Z,15.40
2022-09-03T02:48:39.669Z,15.39
2022-09-03T02:53:42.821Z,15.37
2022-09-03T02:58:45.567Z,15.36
2022-09-03T03:03:50.160Z,15.32
2022-09-03T03:08:55.932Z,15.32
2022-09-03T03:13:58.944Z,15.33
2022-09-03T03:19:03.138Z,15.32
2022-09-03T03:24:06.418Z,15.33
2022-09-03T03:29:11.112Z,15.31
2022-09-03T03:34:15.609Z,15.30
2022-09-03T03:39:18.436Z,15.33
2022-09-03T03:44:21.219Z,15.31
2022-09-03T03:49:25.287Z,15.31
2022-09-03T03:54:27.994Z,15.29
2022-09-03T03:59:30.751Z,15.27
2022-09-03T04:04:34.854Z,15.23
2022-09-03T04:09:37.713Z,15.21
2022-09-03T04:14:40.409Z,15.18
2022-09-03T04:19:48.085Z,15.12
2022-09-03T04:24:50.844Z,15.06
2022-09-03T04:29:53.877Z,15.05
2022-09-03T04:34:58.350Z,15.01
2022-09-03T04:40:01.083Z,15.00
2022-09-03T04:45:04.238Z,14.98
2022-09-03T04:50:09.433Z,14.92
2022-09-03T04:55:12.118Z,14.94
2022-09-03T05:00:18.095Z,14.95
2022-09-03T05:05:23.329Z,14.94
2022-09-03T05:10:26.094Z,14.92
2022-09-03T05:15:29.189Z,15.00
2022-09-03T05:20:33.637Z,15.06
2022-09-03T05:25:38.083Z,15.07
2022-09-03T05:30:40.824Z,15.14
2022-09-03T05:35:44.864Z,15.18
2022-09-03T05:40:47.898Z,15.25
2022-09-03T05:45:50.798Z,15.24
2022-09-03T05:51:01.973Z,15.29
2022-09-03T05:56:07.386Z,15.50
2022-09-03T06:01:14.270Z,15.72
2022-09-03T06:06:18.351Z,15.83
2022-09-03T06:11:21.566Z,15.98
2022-09-03T06:16:30.688Z,15.85
2022-09-03T06:21:37.027Z,15.90
2022-09-03T06:26:40.025Z,15.83
2022-09-03T06:31:45.677Z,15.81
2022-09-03T06:36:50.601Z,15.63
2022-09-03T06:41:53.469Z,15.79
2022-09-03T06:47:03.171Z,15.85
2022-09-03T06:52:07.327Z,15.85
2022-09-03T06:57:10.063Z,15.80
2022-09-03T07:02:12.969Z,15.83
2022-09-03T07:07:17.134Z,15.77
2022-09-03T07:12:19.911Z,15.73
2022-09-03T07:17:23.049Z,15.66
2022-09-03T07:22:31.483Z,15.73
2022-09-03T07:27:35.826Z,15.70
2022-09-03T07:32:40.888Z,16.06
2022-09-03T07:37:45.111Z,16.11
2022-09-03T07:42:50.977Z,16.31
2022-09-03T07:47:56.139Z,16.24
2022-09-03T07:53:00.415Z,16.20
2022-09-03T07:58:03.868Z,16.08
2022-09-03T08:03:08.560Z,16.18
2022-09-03T08:08:15.504Z,16.35
2022-09-03T08:13:19.290Z,16.36
2022-09-03T08:18:22.812Z,16.66
2022-09-03T08:23:27.276Z,16.85
2022-09-03T08:28:34.246Z,17.66
2022-09-03T08:33:42.409Z,17.26
2022-09-03T08:38:48.631Z,17.30
2022-09-03T08:44:23.036Z,17.25
2022-09-03T08:49:30.742Z,16.92
2022-09-03T08:54:34.963Z,16.93
2022-09-03T08:59:38.159Z,16.78
2022-09-03T09:04:57.730Z,16.60
2022-09-03T09:10:10.595Z,16.62
2022-09-03T09:15:18.605Z,16.86
2022-09-03T09:20:30.206Z,17.12
2022-09-03T09:25:39.626Z,17.21
2022-09-03T09:30:43.692Z,17.40
2022-09-03T09:35:47.561Z,17.72
2022-09-03T09:40:51.781Z,17.91
2022-09-03T09:45:55.584Z,17.91
2022-09-03T09:51:10.093Z,17.94
2022-09-03T09:56:24.985Z,18.28
2022-09-03T10:01:30.394Z,18.43
2022-09-03T10:06:51.200Z,18.92
2022-09-03T10:12:05.802Z,19.66
2022-09-03T10:17:15.889Z,19.86
2022-09-03T10:22:26.217Z,19.81
2022-09-03T10:27:33.096Z,19.96
2022-09-03T10:32:48.534Z,20.19
2022-09-03T10:38:01.807Z,20.27
2022-09-03T10:43:31.520Z,20.01
2022-09-03T10:48:57.473Z,19.63
2022-09-03T10:54:20.652Z,19.51
2022-09-03T10:59:37.042Z,19.46
2022-09-03T11:04:49.394Z,19.58
2022-09-03T11:09:58.894Z,19.33
2022-09-03T11:15:09.042Z,19.85
2022-09-03T11:20:19.591Z,19.79
2022-09-03T11:25:26.084Z,20.59
2022-09-03T11:30:41.535Z,20.64
2022-09-03T11:35:44.573Z,20.13
2022-09-03T11:41:00.833Z,20.71
2022-09-03T11:46:11.995Z,21.76
2022-09-03T11:51:31.982Z,22.82
2022-09-03T11:56:36.497Z,22.68
2022-09-03T12:01:44.797Z,23.53
2022-09-03T12:07:23.120Z,24.24
2022-09-03T12:12:40.627Z,24.81
2022-09-03T12:18:13.274Z,23.88
2022-09-03T12:23:28.154Z,23.55
2022-09-03T12:28:33.865Z,23.02
2022-09-03T12:33:44.108Z,23.34
2022-09-03T12:39:10.336Z,25.80
2022-09-03T12:44:11.620Z,25.85
2022-09-03T12:49:31.400Z,24.07
2022-09-03T12:54:35.727Z,24.59
2022-09-03T12:59:40.421Z,24.23
2022-09-03T13:04:46.283Z,23.89
2022-09-03T13:09:49.691Z,23.93
2022-09-03T13:14:52.937Z,23.25
2022-09-03T13:20:21.351Z,23.18
2022-09-03T13:25:31.303Z,23.34
2022-09-03T13:30:42.409Z,26.05
2022-09-03T13:35:52.939Z,25.42
2022-09-03T13:40:59.600Z,24.66
2022-09-03T13:46:07.230Z,24.49
2022-09-03T13:51:18.971Z,25.19
2022-09-03T13:56:31.056Z,24.30
2022-09-03T14:01:51.917Z,24.11
2022-09-03T14:07:02.929Z,23.89
2022-09-03T14:12:14.917Z,23.32
2022-09-03T14:17:27.871Z,23.18
2022-09-03T14:22:45.277Z,24.02
2022-09-03T14:27:48.885Z,23.03
2022-09-03T14:32:59.330Z,23.35
2022-09-03T14:38:41.793Z,23.24
2022-09-03T14:44:04.409Z,23.73
2022-09-03T14:49:26.229Z,23.45
2022-09-03T14:54:42.711Z,24.13
2022-09-03T15:00:06.263Z,24.36
2022-09-03T15:05:13.089Z,23.33
2022-09-03T15:10:21.800Z,23.12
2022-09-03T15:15:30.390Z,23.31
2022-09-03T15:20:44.718Z,23.30
2022-09-03T15:26:27.133Z,23.06
2022-09-03T15:31:44.058Z,23.05
2022-09-03T15:36:51.649Z,22.63
2022-09-03T15:41:59.383Z,22.18
2022-09-03T15:47:14.013Z,22.08
2022-09-03T15:52:30.392Z,21.86
2022-09-03T15:57:42.863Z,21.72
2022-09-03T16:02:52.294Z,21.57
2022-09-03T16:08:08.019Z,21.61
2022-09-03T16:13:30.779Z,21.50
2022-09-03T16:18:38.886Z,21.54
2022-09-03T16:23:50.190Z,21.50
2022-09-03T16:28:58.681Z,21.41
2022-09-03T16:34:08.866Z,21.31
2022-09-03T16:39:23.097Z,21.28
2022-09-03T16:44:38.887Z,21.25
2022-09-03T16:49:53.773Z,21.14
2022-09-03T16:55:11.182Z,21.16
2022-09-03T17:00:17.194Z,21.06
2022-09-03T17:05:38.285Z,21.07
2022-09-03T17:10:49.990Z,21.01
2022-09-03T17:15:58.468Z,20.72
2022-09-03T17:21:14.645Z,20.44
2022-09-03T17:26:29.251Z,19.97
2022-09-03T17:31:51.355Z,19.52
2022-09-03T17:37:05.484Z,19.43
2022-09-03T17:42:20.426Z,19.33
2022-09-03T17:47:43.239Z,19.29
2022-09-03T17:52:49.767Z,19.21
2022-09-03T17:57:58.968Z,19.12
2022-09-03T18:03:09.730Z,19.08
2022-09-03T18:08:19.257Z,18.99
2022-09-03T18:13:32.559Z,18.88
2022-09-03T18:18:46.277Z,18.74
2022-09-03T18:24:12.851Z,18.73
2022-09-03T18:29:38.657Z,18.65
2022-09-03T18:35:01.562Z,18.58
2022-09-03T18:40:22.539Z,18.54
2022-09-03T18:51:44.284Z,18.49
2022-09-03T18:57:06.888Z,18.40
2022-09-03T19:02:41.863Z,18.32
2022-09-03T19:08:10.508Z,18.30
2022-09-03T19:13:43.914Z,18.23
2022-09-03T19:19:21.713Z,18.10
2022-09-03T19:24:47.589Z,18.00
2022-09-03T19:30:19.989Z,17.89
2022-09-03T19:35:46.377Z,17.77
2022-09-03T19:41:21.111Z,17.66
2022-09-03T19:46:53.867Z,17.59
2022-09-03T19:52:22.606Z,17.54
2022-09-03T19:57:47.733Z,17.35
2022-09-03T20:03:08.485Z,17.24
2022-09-03T20:08:33.554Z,17.12
2022-09-03T20:13:54.131Z,17.09
2022-09-03T20:19:04.149Z,16.98
2022-09-03T20:24:26.804Z,16.87
2022-09-03T20:30:02.665Z,16.73
2022-09-03T20:35:10.962Z,16.62
2022-09-03T20:40:26.991Z,16.55
2022-09-03T20:45:44.347Z,16.47
2022-09-03T20:50:56.545Z,16.44
2022-09-03T20:56:04.482Z,16.41
2022-09-03T21:01:12.566Z,16.34
2022-09-03T21:06:27.773Z,16.29
2022-09-03T21:11:38.896Z,16.21
2022-09-03T21:16:57.400Z,16.18
2022-09-03T21:22:04.878Z,16.08
2022-09-03T21:27:13.882Z,16.01
2022-09-03T21:32:21.576Z,15.93
2022-09-03T21:37:25.429Z,15.82
2022-09-03T21:42:34.199Z,15.79
2022-09-03T21:47:44.284Z,15.72
2022-09-03T21:52:52.961Z,15.63
2022-09-03T21:58:10.445Z,15.56
2022-09-03T22:03:14.573Z,15.52
2022-09-03T22:08:24.446Z,15.47
2022-09-03T22:13:32.361Z,15.35
2022-09-03T22:18:36.828Z,15.25
2022-09-03T22:23:55.421Z,15.21
2022-09-03T22:29:05.720Z,15.07
2022-09-03T22:34:27.173Z,15.07
2022-09-03T22:39:36.569Z,14.98
2022-09-03T22:44:55.701Z,14.96
2022-09-03T22:50:08.854Z,14.88
2022-09-03T22:55:18.426Z,14.88
2022-09-03T23:00:21.837Z,14.86
2022-09-03T23:05:35.731Z,14.84
2022-09-03T23:10:55.035Z,14.78
2022-09-03T23:16:05.041Z,14.69
2022-09-03T23:21:25.101Z,14.63
2022-09-03T23:26:36.244Z,14.60
2022-09-03T23:31:39.311Z,14.57
2022-09-03T23:42:51.121Z,14.51
2022-09-03T23:48:00.211Z,14.53
2022-09-03T23:53:15.478Z,14.57
2022-09-03T23:58:29.815Z,14.64
